createdAt,value
2019-04-16T00:03:07.353Z,101127
2019-04-16T00:08:30.030Z,101119
2019-04-16T00:13:52.660Z,101115
2019-04-16T00:19:15.304Z,101111
2019-04-16T00:24:37.999Z,101106
2019-04-16T00:30:03.824Z,101098
2019-04-16T00:35:23.260Z,101096
2019-04-16T00:40:45.981Z,101091
2019-04-16T00:46:11.432Z,101088
2019-04-16T00:51:31.725Z,101086
2019-04-16T00:56:54.577Z,101085
2019-04-16T01:02:17.398Z,101079
2019-04-16T01:07:40.151Z,101077
2019-04-16T01:13:03.059Z,101069
2019-04-16T01:18:26.415Z,101071
2019-04-16T01:23:49.598Z,101069
2019-04-16T01:29:11.666Z,101065
2019-04-16T01:34:34.316Z,101066
2019-04-16T01:39:57.020Z,101060
2019-04-16T01:45:19.677Z,101059
2019-04-16T01:50:43.692Z,101057
2019-04-16T01:56:05.584Z,101062
2019-04-16T02:01:28.280Z,101062
2019-04-16T02:06:50.953Z,101063
2019-04-16T02:12:14.604Z,101067
2019-04-16T02:17:37.234Z,101065
2019-04-16T02:23:01.145Z,101064
2019-04-16T02:28:27.848Z,101059
2019-04-16T02:33:47.503Z,101059
2019-04-16T02:39:10.248Z,101048
2019-04-16T02:44:32.936Z,101043
2019-04-16T02:49:56.694Z,101038
2019-04-16T02:55:18.423Z,101034
2019-04-16T03:00:41.147Z,101038
2019-04-16T03:06:05.418Z,101027
2019-04-16T03:11:28.135Z,101023
2019-04-16T03:16:51.854Z,101021
2019-04-16T03:22:14.698Z,101007
2019-04-16T03:27:37.608Z,101010
2019-04-16T03:33:00.529Z,100999
2019-04-16T03:38:24.260Z,100992
2019-04-16T03:43:47.026Z,100991
2019-04-16T03:49:09.851Z,100986
2019-04-16T03:54:32.567Z,100982
2019-04-16T03:59:55.413Z,100983
2019-04-16T04:05:19.171Z,100979
2019-04-16T04:10:41.971Z,100975
2019-04-16T04:16:04.665Z,100967
2019-04-16T04:21:28.411Z,100956
2019-04-16T04:26:51.244Z,100961
2019-04-16T04:32:15.210Z,100964
2019-04-16T04:37:38.036Z,100963
2019-04-16T04:43:01.719Z,100968
2019-04-16T04:48:24.331Z,100970
2019-04-16T04:53:47.444Z,100969
2019-04-16T04:59:09.409Z,100964
2019-04-16T05:04:32.215Z,100963
2019-04-16T05:09:55.098Z,100963
2019-04-16T05:15:18.900Z,100965
2019-04-16T05:20:46.673Z,100965
2019-04-16T05:26:05.456Z,100964
2019-04-16T05:31:30.969Z,100968
2019-04-16T05:36:50.800Z,100969
2019-04-16T05:42:13.623Z,100966
2019-04-16T05:47:38.463Z,100967
2019-04-16T05:53:01.174Z,100964
2019-04-16T05:58:27.449Z,100966
2019-04-16T06:03:52.744Z,100971
2019-04-16T06:09:13.269Z,100963
2019-04-16T06:14:35.015Z,100967
2019-04-16T06:19:57.691Z,100978
2019-04-16T06:25:20.513Z,100965
2019-04-16T06:30:43.063Z,100970
2019-04-16T06:36:06.789Z,100969
2019-04-16T06:41:40.657Z,100973
2019-04-16T06:46:53.105Z,100975
2019-04-16T06:52:17.317Z,100971
2019-04-16T06:57:40.292Z,100973
2019-04-16T07:03:02.712Z,100983
2019-04-16T07:08:36.714Z,100984
2019-04-16T07:13:48.514Z,100979
2019-04-16T07:19:12.556Z,100975
2019-04-16T07:24:37.824Z,100972
2019-04-16T07:30:04.578Z,100969
2019-04-16T07:35:26.872Z,100957
2019-04-16T07:40:46.392Z,100966
2019-04-16T07:46:09.100Z,100962
2019-04-16T07:51:35.735Z,100958
2019-04-16T07:56:54.877Z,100957
2019-04-16T08:02:21.350Z,100955
2019-04-16T08:07:40.505Z,100946
2019-04-16T08:13:03.213Z,100944
2019-04-16T08:18:25.953Z,100946
2019-04-16T08:23:51.790Z,100943
2019-04-16T08:29:11.785Z,100946
2019-04-16T08:34:34.587Z,100948
2019-04-16T08:39:57.270Z,100943
2019-04-16T08:45:20.654Z,100938
2019-04-16T08:50:42.921Z,100940
2019-04-16T08:56:06.748Z,100940
2019-04-16T09:01:29.458Z,100936
2019-04-16T09:06:52.634Z,100933
2019-04-16T09:12:16.608Z,100919
2019-04-16T09:17:39.298Z,100914
2019-04-16T09:23:02.009Z,100906
2019-04-16T09:28:26.189Z,100903
2019-04-16T09:33:48.579Z,100892
2019-04-16T09:39:11.667Z,100891
2019-04-16T09:44:35.419Z,100890
2019-04-16T09:49:57.188Z,100899
2019-04-16T09:55:19.790Z,100903
2019-04-16T10:00:42.441Z,100901
2019-04-16T10:06:05.624Z,100908
2019-04-16T10:11:27.682Z,100894
2019-04-16T10:16:51.302Z,100880
2019-04-16T10:22:13.951Z,100878
2019-04-16T10:27:36.615Z,100883
2019-04-16T10:32:59.479Z,100876
2019-04-16T10:38:22.341Z,100874
2019-04-16T10:43:45.235Z,100870
2019-04-16T10:49:07.873Z,100852
2019-04-16T10:54:30.677Z,100851
2019-04-16T10:59:54.428Z,100846
2019-04-16T11:05:20.225Z,100842
2019-04-16T11:10:41.863Z,100846
2019-04-16T11:16:04.595Z,100849
2019-04-16T11:21:27.254Z,100847
2019-04-16T11:26:49.852Z,100846
2019-04-16T11:32:12.516Z,100845
2019-04-16T11:37:36.301Z,100832
2019-04-16T11:42:59.009Z,100836
2019-04-16T11:48:22.898Z,100830
2019-04-16T11:53:47.461Z,100834
2019-04-16T11:59:10.169Z,100846
2019-04-16T12:04:36.383Z,100843
2019-04-16T12:09:59.022Z,100841
2019-04-16T12:15:21.648Z,100844
2019-04-16T12:20:44.286Z,100838
2019-04-16T12:26:08.962Z,100841
2019-04-16T12:31:29.926Z,100836
2019-04-16T12:36:53.692Z,100831
2019-04-16T12:42:17.323Z,100826
2019-04-16T12:47:39.957Z,100820
2019-04-16T12:53:02.586Z,100825
2019-04-16T12:58:25.622Z,100813
2019-04-16T13:03:52.281Z,100811
2019-04-16T13:09:10.896Z,100802
2019-04-16T13:14:33.532Z,100812
2019-04-16T13:19:56.279Z,100803
2019-04-16T13:25:18.895Z,100805
2019-04-16T13:30:41.567Z,100803
2019-04-16T13:36:04.221Z,100801
2019-04-16T13:41:27.148Z,100793
2019-04-16T13:46:49.494Z,100787
2019-04-16T13:52:12.120Z,100787
2019-04-16T13:57:35.754Z,100782
2019-04-16T14:02:58.939Z,100778
2019-04-16T14:08:21.663Z,100779
2019-04-16T14:13:44.943Z,100771
2019-04-16T14:19:07.961Z,100772
2019-04-16T14:24:30.644Z,100779
2019-04-16T14:29:53.356Z,100768
2019-04-16T14:35:31.952Z,100764
2019-04-16T14:40:42.289Z,100763
2019-04-16T14:46:03.374Z,100762
2019-04-16T14:51:27.096Z,100766
2019-04-16T14:56:50.782Z,100761
2019-04-16T15:02:13.450Z,100750
2019-04-16T15:07:36.072Z,100754
2019-04-16T15:12:59.826Z,100748
2019-04-16T15:18:22.619Z,100757
2019-04-16T15:23:45.306Z,100752
2019-04-16T15:29:09.225Z,100745
2019-04-16T15:34:31.634Z,100743
2019-04-16T15:39:59.162Z,100748
2019-04-16T15:45:18.661Z,100751
2019-04-16T15:50:41.304Z,100752
2019-04-16T15:56:03.942Z,100757
2019-04-16T16:01:26.606Z,100751
2019-04-16T16:06:52.093Z,100758
2019-04-16T16:12:11.920Z,100754
2019-04-16T16:17:34.621Z,100758
2019-04-16T16:22:59.260Z,100752
2019-04-16T16:28:19.890Z,100764
2019-04-16T16:33:42.544Z,100753
2019-04-16T16:39:05.217Z,100755
2019-04-16T16:44:27.915Z,100758
2019-04-16T16:49:50.571Z,100760
2019-04-16T16:55:13.310Z,100761
2019-04-16T17:00:36.042Z,100768
2019-04-16T17:05:58.722Z,100768
2019-04-16T17:11:21.510Z,100775
2019-04-16T17:16:44.247Z,100783
2019-04-16T17:22:06.887Z,100783
2019-04-16T17:27:29.611Z,100793
2019-04-16T17:32:52.292Z,100796
2019-04-16T17:38:15.255Z,100797
2019-04-16T17:43:38.040Z,100800
2019-04-16T17:49:01.075Z,100811
2019-04-16T17:54:23.783Z,100820
2019-04-16T17:59:46.469Z,100825
2019-04-16T18:05:09.163Z,100827
2019-04-16T18:10:33.917Z,100829
2019-04-16T18:15:54.582Z,100839
2019-04-16T18:21:17.228Z,100841
2019-04-16T18:26:39.981Z,100849
2019-04-16T18:32:03.525Z,100861
2019-04-16T18:37:26.218Z,100868
2019-04-16T18:42:48.826Z,100871
2019-04-16T18:48:13.711Z,100875
2019-04-16T18:53:34.086Z,100887
2019-04-16T18:58:57.711Z,100888
2019-04-16T19:04:20.661Z,100894
2019-04-16T19:09:43.423Z,100902
2019-04-16T19:15:06.529Z,100913
2019-04-16T19:20:29.258Z,100918
2019-04-16T19:25:54.885Z,100922
2019-04-16T19:31:14.806Z,100930
2019-04-16T19:36:38.658Z,100939
2019-04-16T19:42:01.480Z,100943
2019-04-16T19:47:26.443Z,100947
2019-04-16T19:52:47.126Z,100953
2019-04-16T19:58:13.918Z,100954
2019-04-16T20:03:37.081Z,100957
2019-04-16T20:09:00.931Z,100959
2019-04-16T20:14:25.767Z,100968
2019-04-16T20:19:50.129Z,100972
2019-04-16T20:25:13.102Z,100974
2019-04-16T20:30:35.925Z,100980
2019-04-16T20:35:58.711Z,100977
2019-04-16T20:41:21.548Z,100982
2019-04-16T20:46:44.302Z,100980
2019-04-16T20:52:07.495Z,100980
2019-04-16T20:57:30.325Z,100983
2019-04-16T21:02:53.144Z,100981
2019-04-16T21:08:16.640Z,100988
2019-04-16T21:13:39.746Z,100992
2019-04-16T21:19:02.496Z,101001
2019-04-16T21:24:26.300Z,101009
2019-04-16T21:29:49.151Z,101038
2019-04-16T21:35:12.611Z,101048
2019-04-16T21:40:38.835Z,101050
2019-04-16T21:46:01.571Z,101062
2019-04-16T21:51:24.387Z,101053
2019-04-16T21:56:47.096Z,101055
2019-04-16T22:02:13.634Z,101059
2019-04-16T22:07:33.547Z,101062
2019-04-16T22:12:56.230Z,101053
2019-04-16T22:18:19.041Z,101057
2019-04-16T22:23:41.787Z,101057
2019-04-16T22:29:05.586Z,101067
2019-04-16T22:34:29.292Z,101073
2019-04-16T22:39:52.024Z,101070
2019-04-16T22:45:14.752Z,101068
2019-04-16T22:50:37.968Z,101070
2019-04-16T22:56:00.558Z,101071
2019-04-16T23:01:22.997Z,101076
2019-04-16T23:06:45.746Z,101082
2019-04-16T23:12:09.403Z,101085
2019-04-16T23:17:32.128Z,101083
2019-04-16T23:22:54.862Z,101089
2019-04-16T23:28:17.618Z,101087
2019-04-16T23:33:40.979Z,101090
2019-04-16T23:39:04.893Z,101093
2019-04-16T23:44:26.701Z,101090
2019-04-16T23:49:49.108Z,101088
2019-04-16T23:55:16.268Z,101088
